Time;durP1;ratioP1;P1;durP2;ratioP2;P2;SDS_P1;SDS_P2;PMS_P1;PMS_P2;Temp;Humidity;BMP_temperature;BMP_pressure;BME280_temperature;BME280_humidity;BME280_pressure;Samples;Min_cycle;Max_cycle;Signal;HPM_P1;HPM_P2
2023/09/07 00:01:46;;;;;;;6.83;3.67;;;;;;;9.66;100.00;102473.88;5053084;28;20040;-67
2023/09/07 00:04:12;;;;;;;9.53;4.17;;;;;;;9.61;100.00;102477.72;5052982;28;20033;-67
2023/09/07 00:06:39;;;;;;;4.50;4.07;;;;;;;9.58;100.00;102475.31;5053032;28;20078;-66
2023/09/07 00:09:05;;;;;;;4.97;4.23;;;;;;;9.49;100.00;102457.34;5053003;28;20049;-67
2023/09/07 00:11:32;;;;;;;8.13;3.40;;;;;;;9.57;100.00;102462.97;5052716;28;20498;-69
2023/09/07 00:13:59;;;;;;;7.40;3.10;;;;;;;9.59;100.00;102470.81;5052810;28;20025;-68
2023/09/07 00:16:25;;;;;;;4.40;2.87;;;;;;;9.54;100.00;102460.53;5052575;28;20440;-70
2023/09/07 00:18:50;;;;;;;7.07;3.30;;;;;;;9.57;100.00;102473.59;5052524;28;20061;-69
2023/09/07 00:21:16;;;;;;;5.83;2.47;;;;;;;9.55;100.00;102464.03;5052781;28;20032;-67
2023/09/07 00:23:42;;;;;;;7.10;2.60;;;;;;;9.52;100.00;102462.44;5052562;28;20032;-67
2023/09/07 00:26:08;;;;;;;4.30;2.70;;;;;;;9.55;100.00;102486.16;5052557;28;20086;-66
2023/09/07 00:28:33;;;;;;;3.70;2.30;;;;;;;9.49;100.00;102470.66;5051253;28;20032;-66
2023/09/07 00:31:01;;;;;;;5.63;2.93;;;;;;;9.54;100.00;102481.81;5052078;28;20449;-67
2023/09/07 00:33:27;;;;;;;4.57;2.50;;;;;;;9.53;100.00;102477.44;5052056;28;20472;-68
2023/09/07 00:35:52;;;;;;;3.50;2.27;;;;;;;9.48;100.00;102481.41;5052404;28;20143;-69
2023/09/07 00:38:18;;;;;;;4.20;2.23;;;;;;;9.47;100.00;102483.22;5051160;28;20029;-66
2023/09/07 00:40:46;;;;;;;5.30;2.23;;;;;;;9.47;100.00;102488.53;5052302;28;20376;-67
2023/09/07 00:43:12;;;;;;;;;;;;;;;9.47;100.00;102491.19;5052710;28;20159;-67
2023/09/07 00:45:39;;;;;;;3.30;2.10;;;;;;;9.38;100.00;102486.56;5052133;28;19999;-68
2023/09/07 00:48:05;;;;;;;5.37;2.27;;;;;;;9.42;100.00;102492.50;5052110;28;20029;-67
2023/09/07 00:50:31;;;;;;;2.80;2.43;;;;;;;9.42;100.00;102501.31;5034243;28;20032;-67
2023/09/07 00:52:59;;;;;;;3.27;2.40;;;;;;;9.34;100.00;102495.72;5052045;28;20380;-65
2023/09/07 00:55:25;;;;;;;4.00;2.38;;;;;;;9.15;100.00;102461.66;5050931;28;20040;-69
2023/09/07 00:57:50;;;;;;;6.27;2.50;;;;;;;9.28;100.00;102490.88;5051891;28;20033;-67
2023/09/07 01:00:16;;;;;;;6.20;2.43;;;;;;;9.23;100.00;102485.84;5051943;28;20465;-66
2023/09/07 01:02:44;;;;;;;2.90;1.83;;;;;;;9.27;100.00;102502.47;5051839;28;20464;-67
2023/09/07 01:05:11;;;;;;;2.30;2.05;;;;;;;9.21;100.00;102498.41;5052019;28;20032;-66
2023/09/07 01:07:47;;;;;;;3.63;2.00;;;;;;;9.12;100.00;102488.47;5052069;28;20057;-67
2023/09/07 01:10:13;;;;;;;4.37;2.53;;;;;;;9.15;100.00;102503.34;5051843;28;20040;-67
2023/09/07 01:12:40;;;;;;;5.07;1.87;;;;;;;8.98;100.00;102483.31;5051856;28;20033;-66
2023/09/07 01:15:06;;;;;;;4.20;2.50;;;;;;;9.09;100.00;102506.44;5051738;28;20384;-67
2023/09/07 01:17:33;;;;;;;3.80;2.50;;;;;;;8.94;100.00;102480.00;5051720;28;20025;-67
2023/09/07 01:20:07;;;;;;;5.80;2.20;;;;;;;9.08;100.00;102496.78;5051821;28;20482;-67
2023/09/07 01:22:33;;;;;;;4.43;2.37;;;;;;;8.98;100.00;102494.78;5051813;28;20033;-68
2023/09/07 01:25:00;;;;;;;4.40;2.27;;;;;;;9.03;100.00;102515.72;5050353;28;20029;-67
2023/09/07 01:27:25;;;;;;;4.53;2.50;;;;;;;8.93;100.00;102499.56;5051762;28;20055;-67
2023/09/07 01:29:52;;;;;;;5.30;2.13;;;;;;;8.92;100.00;102503.16;5051637;28;20045;-67
2023/09/07 01:32:20;;;;;;;5.10;2.13;;;;;;;8.87;100.00;102502.66;5051764;28;20040;-67
2023/09/07 01:34:45;;;;;;;3.50;2.13;;;;;;;8.92;100.00;102508.47;5051634;28;20037;-66
2023/09/07 01:37:11;;;;;;;5.07;2.40;;;;;;;9.03;100.00;102517.50;5051785;28;20037;-68
2023/09/07 01:39:36;;;;;;;3.57;2.07;;;;;;;9.04;100.00;102521.88;5051518;28;20117;-65
2023/09/07 01:42:02;;;;;;;4.00;2.23;;;;;;;8.44;100.00;102421.66;5050006;28;20110;-67
2023/09/07 01:44:29;;;;;;;4.93;2.27;;;;;;;9.09;100.00;102514.41;5052181;28;20029;-67
2023/09/07 01:46:55;;;;;;;6.47;2.27;;;;;;;8.97;100.00;102506.38;5055566;28;20036;-67
2023/09/07 01:49:20;;;;;;;2.03;1.83;;;;;;;8.98;100.00;102502.75;5055455;28;20029;-67
2023/09/07 01:51:46;;;;;;;2.77;2.00;;;;;;;9.11;100.00;102526.63;5056158;28;20036;-66
2023/09/07 01:54:11;;;;;;;7.03;2.30;;;;;;;9.09;100.00;102519.72;5056101;28;20417;-67
2023/09/07 01:56:37;;;;;;;3.60;2.37;;;;;;;8.98;100.00;102508.06;5055957;28;20102;-66
2023/09/07 01:59:02;;;;;;;4.70;1.90;;;;;;;9.00;100.00;102516.78;5054303;28;20021;-68
2023/09/07 02:01:30;;;;;;;3.60;2.17;;;;;;;9.00;100.00;102508.81;5055364;28;20033;-66
2023/09/07 02:03:56;;;;;;;2.58;2.03;;;;;;;8.94;100.00;102511.88;5054180;28;20033;-67
2023/09/07 02:06:22;;;;;;;3.50;2.40;;;;;;;8.93;100.00;102509.31;5055145;28;20087;-68
2023/09/07 02:08:48;;;;;;;2.80;2.10;;;;;;;8.97;100.00;102521.47;5055161;28;20372;-67
2023/09/07 02:11:14;;;;;;;3.23;2.13;;;;;;;8.92;100.00;102516.44;5053692;28;20035;-66
2023/09/07 02:13:42;;;;;;;4.43;2.20;;;;;;;8.98;100.00;102526.66;5055276;28;20357;-67
2023/09/07 02:16:08;;;;;;;3.13;2.20;;;;;;;8.94;100.00;102529.63;5054060;28;20124;-66
2023/09/07 02:18:34;;;;;;;3.73;2.20;;;;;;;8.95;100.00;102523.34;5053733;28;20033;-66
2023/09/07 02:21:19;;;;;;;3.07;1.87;;;;;;;8.84;100.00;102504.69;5053923;28;20033;-68
2023/09/07 02:23:44;;;;;;;7.33;2.30;;;;;;;8.95;100.00;102532.16;5054768;28;20029;-66
2023/09/07 02:26:10;;;;;;;4.70;2.00;;;;;;;8.92;100.00;102529.75;5053571;28;20530;-67
2023/09/07 02:28:35;;;;;;;4.20;2.60;;;;;;;8.88;100.00;102530.91;5054896;28;20056;-67
2023/09/07 02:31:08;;;;;;;4.53;2.63;;;;;;;8.92;100.00;102537.72;5036594;28;20091;-67
2023/09/07 02:33:34;;;;;;;5.53;2.23;;;;;;;8.92;100.00;102537.72;5054402;28;20071;-67
2023/09/07 02:35:59;;;;;;;3.47;2.03;;;;;;;8.90;100.00;102526.34;5054998;28;20103;-66
2023/09/07 02:38:25;;;;;;;5.20;3.00;;;;;;;8.77;100.00;102514.03;5055037;28;20029;-68
2023/09/07 02:40:50;;;;;;;6.83;2.40;;;;;;;8.30;100.00;102450.00;5061084;28;20024;-66
2023/09/07 02:43:16;;;;;;;3.40;2.20;;;;;;;8.67;100.00;102497.88;5055883;28;20468;-67
2023/09/07 02:45:41;;;;;;;4.77;2.60;;;;;;;8.61;100.00;102493.88;5061599;28;20044;-68
2023/09/07 02:48:07;;;;;;;4.03;2.50;;;;;;;8.87;100.00;102541.66;5060524;28;20141;-66
2023/09/07 02:50:34;;;;;;;4.07;1.97;;;;;;;8.75;100.00;102524.78;5059508;28;20029;-65
2023/09/07 02:53:00;;;;;;;5.10;2.57;;;;;;;8.64;100.00;102508.72;5057192;28;20032;-67
2023/09/07 02:55:27;;;;;;;2.97;2.33;;;;;;;8.58;100.00;102499.38;5058290;28;20025;-66
2023/09/07 02:57:53;;;;;;;3.83;3.07;;;;;;;8.78;100.00;102527.22;5057298;28;20472;-68
2023/09/07 03:00:18;;;;;;;6.23;2.23;;;;;;;8.43;100.00;102473.94;5057336;28;20029;-66
2023/09/07 03:02:44;;;;;;;6.63;2.40;;;;;;;8.81;100.00;102542.09;5057235;28;20495;-67
2023/09/07 03:05:10;;;;;;;4.07;2.47;;;;;;;8.76;100.00;102531.78;5054686;28;20029;-66
2023/09/07 03:07:35;;;;;;;8.63;3.03;;;;;;;8.56;100.00;102500.47;5053836;28;20052;-67
2023/09/07 03:10:01;;;;;;;3.93;2.33;;;;;;;8.84;100.00;102553.34;5054103;28;20031;-66
2023/09/07 03:12:27;;;;;;;4.60;2.00;;;;;;;8.83;100.00;102556.13;5052920;28;20491;-68
2023/09/07 03:14:53;;;;;;;2.90;2.53;;;;;;;8.72;100.00;102540.94;5053980;28;20029;-67
2023/09/07 03:17:22;;;;;;;6.07;2.00;;;;;;;8.67;100.00;102541.25;5053914;28;20033;-67
2023/09/07 03:19:48;;;;;;;4.07;2.40;;;;;;;8.64;100.00;102529.97;5053619;28;20033;-67
2023/09/07 03:22:14;;;;;;;5.83;2.40;;;;;;;8.79;100.00;102560.81;5053524;28;20487;-66
2023/09/07 03:24:40;;;;;;;5.23;2.30;;;;;;;8.85;100.00;102570.13;5053686;28;20122;-69
2023/09/07 03:27:05;;;;;;;3.80;2.50;;;;;;;8.79;100.00;102565.25;5052433;28;20028;-67
2023/09/07 03:29:35;;;;;;;9.07;2.83;;;;;;;8.57;100.00;102534.88;5053529;28;20029;-67
2023/09/07 03:32:01;;;;;;;12.67;2.77;;;;;;;8.82;100.00;102576.53;5052415;28;20136;-68
2023/09/07 03:34:27;;;;;;;3.70;2.47;;;;;;;8.76;100.00;102570.78;5053474;28;20111;-67
2023/09/07 03:36:52;;;;;;;3.17;2.40;;;;;;;8.86;100.00;102582.47;5053275;28;20025;-69
2023/09/07 03:39:18;;;;;;;4.17;2.77;;;;;;;8.89;100.00;102588.41;5053620;28;20064;-67
2023/09/07 03:41:44;;;;;;;10.37;2.43;;;;;;;8.91;100.00;102597.13;5053334;28;20124;-67
2023/09/07 03:44:10;;;;;;;6.60;2.57;;;;;;;8.74;100.00;102562.94;5053424;28;20065;-67
2023/09/07 03:46:36;;;;;;;5.50;2.33;;;;;;;8.58;100.00;102533.06;5053210;28;20040;-67
2023/09/07 03:49:02;;;;;;;2.90;2.10;;;;;;;8.88;100.00;102584.06;5051887;28;20047;-69
2023/09/07 03:51:28;;;;;;;3.87;1.90;;;;;;;8.97;100.00;102599.38;5052962;28;20469;-67
2023/09/07 03:53:53;;;;;;;9.23;3.43;;;;;;;8.87;100.00;102579.69;5052892;28;20116;-68
2023/09/07 03:56:19;;;;;;;2.87;1.73;;;;;;;9.04;100.00;102607.75;5052013;28;20040;-66
2023/09/07 03:58:46;;;;;;;5.03;2.43;;;;;;;8.97;100.00;102586.09;5052812;28;20457;-68
2023/09/07 04:01:12;;;;;;;3.38;2.28;;;;;;;9.09;100.00;102602.97;5053010;28;20037;-68
2023/09/07 04:03:38;;;;;;;3.47;2.30;;;;;;;9.12;100.00;102599.25;5052726;28;20496;-68
2023/09/07 04:06:04;;;;;;;3.13;2.00;;;;;;;9.12;100.00;102593.94;5053104;28;20424;-65
2023/09/07 04:08:30;;;;;;;3.10;2.30;;;;;;;9.18;100.00;102610.28;5052571;28;20044;-68
2023/09/07 04:10:55;;;;;;;2.87;2.03;;;;;;;9.17;100.00;102597.09;5053219;28;20028;-66
2023/09/07 04:13:20;;;;;;;2.97;2.10;;;;;;;9.18;100.00;102609.44;5052838;28;20124;-68
2023/09/07 04:15:46;;;;;;;4.97;2.43;;;;;;;8.83;100.00;102535.72;5052694;28;20029;-68
2023/09/07 04:18:12;;;;;;;5.97;2.63;;;;;;;9.26;100.00;102601.78;5052472;28;20468;-67
2023/09/07 04:20:41;;;;;;;2.30;2.00;;;;;;;9.32;100.00;102606.66;5052362;28;20137;-68
2023/09/07 04:23:06;;;;;;;3.65;2.50;;;;;;;9.39;100.00;102618.56;5052483;28;20025;-68
2023/09/07 04:25:32;;;;;;;3.57;2.17;;;;;;;9.05;100.00;102553.66;5052581;28;20358;-66
2023/09/07 04:27:58;;;;;;;6.77;2.57;;;;;;;9.40;100.00;102606.97;5052299;28;20071;-68
2023/09/07 04:30:24;;;;;;;6.67;2.77;;;;;;;9.31;100.00;102581.88;5052436;28;20060;-67
2023/09/07 04:32:50;;;;;;;3.73;2.60;;;;;;;9.42;100.00;102605.03;5052286;28;20068;-68
2023/09/07 04:35:15;;;;;;;3.47;2.40;;;;;;;9.36;100.00;102592.19;5051423;28;20052;-72
2023/09/07 04:37:47;;;;;;;3.30;2.37;;;;;;;9.53;100.00;102621.06;5051250;28;20465;-71
2023/09/07 04:40:13;;;;;;;4.53;2.23;;;;;;;9.43;100.00;102595.25;5052288;28;20468;-71
2023/09/07 04:42:39;;;;;;;5.97;2.43;;;;;;;9.55;100.00;102611.19;5052222;28;20078;-70
2023/09/07 04:45:05;;;;;;;5.90;3.03;;;;;;;9.41;100.00;102598.03;5050737;28;20460;-68
2023/09/07 04:47:31;;;;;;;4.37;2.40;;;;;;;9.58;100.00;102621.59;5051841;28;20100;-69
2023/09/07 04:49:57;;;;;;;5.40;2.97;;;;;;;9.52;100.00;102603.41;5050485;28;20546;-69
2023/09/07 04:52:22;;;;;;;6.57;2.20;;;;;;;9.48;100.00;102598.41;5051905;28;20112;-67
2023/09/07 04:54:48;;;;;;;3.00;2.43;;;;;;;9.62;100.00;102625.72;5052136;28;20021;-70
2023/09/07 04:57:17;;;;;;;5.90;2.40;;;;;;;9.63;100.00;102615.94;5051177;28;20037;-68
2023/09/07 04:59:42;;;;;;;3.97;2.20;;;;;;;9.57;100.00;102608.41;5051931;28;20102;-66
2023/09/07 05:02:08;;;;;;;3.87;2.30;;;;;;;9.79;100.00;102634.28;5051602;28;20456;-67
2023/09/07 05:04:33;;;;;;;4.73;2.63;;;;;;;9.81;100.00;102629.69;5051773;28;20025;-68
2023/09/07 05:06:59;;;;;;;5.57;2.23;;;;;;;9.89;100.00;102628.19;5052080;28;20112;-66
2023/09/07 05:09:25;;;;;;;7.83;3.30;;;;;;;9.85;100.00;102620.56;5051927;28;20120;-68
2023/09/07 05:11:50;;;;;;;4.50;2.50;;;;;;;10.04;100.00;102639.50;5051993;28;20056;-65
2023/09/07 05:14:16;;;;;;;3.33;2.20;;;;;;;10.08;100.00;102638.31;5051837;28;20131;-67
2023/09/07 05:16:45;;;;;;;7.03;2.33;;;;;;;9.07;100.00;102457.84;5051536;28;20461;-68
2023/09/07 05:19:10;;;;;;;6.65;2.95;;;;;;;10.22;100.00;102640.84;5051513;28;20460;-69
2023/09/07 05:21:35;;;;;;;4.83;2.50;;;;;;;10.14;100.00;102611.25;5055986;28;20035;-69
2023/09/07 05:24:01;;;;;;;3.30;2.67;;;;;;;10.23;100.00;102610.59;5056065;28;20114;-68
2023/09/07 05:26:28;;;;;;;4.53;2.30;;;;;;;10.35;100.00;102621.28;5055829;28;20032;-68
2023/09/07 05:28:53;;;;;;;3.13;1.67;;;;;;;10.51;100.00;102629.81;5054548;28;20128;-67
2023/09/07 05:31:19;;;;;;;5.70;2.20;;;;;;;10.57;100.00;102629.34;5055910;28;20451;-70
2023/09/07 05:33:44;;;;;;;3.43;2.40;;;;;;;10.64;100.00;102625.25;5059339;28;20040;-69
2023/09/07 05:36:10;;;;;;;7.43;2.37;;;;;;;10.59;100.00;102616.75;5058973;28;20036;-69
2023/09/07 05:38:36;;;;;;;5.93;4.80;;;;;;;10.66;100.00;102619.78;5055575;28;20052;-70
2023/09/07 05:41:01;;;;;;;5.47;2.30;;;;;;;10.63;100.00;102604.88;5055811;28;20040;-70
2023/09/07 05:43:27;;;;;;;6.67;3.13;;;;;;;10.90;100.00;102643.69;5055145;28;20029;-70
2023/09/07 05:45:52;;;;;;;6.20;2.67;;;;;;;10.91;100.00;102629.41;5054162;28;20059;-67
2023/09/07 05:48:18;;;;;;;10.03;2.50;;;;;;;11.09;99.78;102643.97;5055813;28;20029;-68
2023/09/07 05:50:44;;;;;;;10.97;2.87;;;;;;;11.07;98.98;102627.25;5054288;28;20033;-67
2023/09/07 05:53:10;;;;;;;3.90;2.20;;;;;;;11.15;98.78;102622.16;5055406;28;20074;-66
2023/09/07 05:55:35;;;;;;;5.00;2.47;;;;;;;11.32;98.52;102632.34;5055341;28;20116;-69
2023/09/07 05:58:05;;;;;;;5.70;3.40;;;;;;;11.38;97.40;102634.53;5055057;28;20037;-67
2023/09/07 06:00:30;;;;;;;4.10;2.67;;;;;;;11.53;97.17;102637.78;5055784;28;20028;-70
2023/09/07 06:02:56;;;;;;;2.07;1.83;;;;;;;11.65;94.67;102625.28;5055225;28;20025;-69
2023/09/07 06:05:21;;;;;;;8.80;2.87;;;;;;;11.88;93.38;102632.31;5055123;28;20028;-68
2023/09/07 06:07:47;;;;;;;5.70;1.70;;;;;;;12.09;91.37;102625.16;5053766;28;20021;-69
2023/09/07 06:10:13;;;;;;;3.03;2.40;;;;;;;12.42;89.17;102620.66;5055026;28;20115;-69
2023/09/07 06:12:38;;;;;;;2.40;2.20;;;;;;;12.70;85.88;102636.03;5053641;28;20021;-67
2023/09/07 06:15:04;;;;;;;3.27;1.60;;;;;;;12.92;83.85;102629.72;5054685;28;20302;-67
2023/09/07 06:17:31;;;;;;;5.17;2.40;;;;;;;13.06;83.30;102622.34;5054967;28;20461;-75
2023/09/07 06:19:57;;;;;;;9.60;2.73;;;;;;;13.25;82.58;102619.75;5055001;28;20174;-69
2023/09/07 06:22:22;;;;;;;7.93;2.50;;;;;;;13.47;81.35;102621.38;5054919;28;20082;-68
2023/09/07 06:24:49;;;;;;;6.53;2.60;;;;;;;13.59;80.67;102623.00;5054695;28;20479;-68
2023/09/07 06:27:14;;;;;;;7.67;2.43;;;;;;;13.79;79.97;102614.00;5054388;28;20052;-70
2023/09/07 06:29:41;;;;;;;2.87;1.93;;;;;;;13.88;78.43;102607.81;5054021;28;20472;-69
2023/09/07 06:32:07;;;;;;;4.30;2.07;;;;;;;13.91;77.35;102615.56;5054294;28;20033;-69
2023/09/07 06:34:32;;;;;;;4.13;2.10;;;;;;;13.86;75.08;102604.41;5054696;28;20032;-69
2023/09/07 06:36:58;;;;;;;3.57;2.10;;;;;;;14.00;75.56;102623.75;5054545;28;20223;-70
2023/09/07 06:39:23;;;;;;;2.53;2.20;;;;;;;14.02;75.43;102625.31;5053408;28;20029;-70
2023/09/07 06:41:49;;;;;;;3.57;1.80;;;;;;;13.99;74.81;102643.50;5054234;28;20056;-72
2023/09/07 06:44:14;;;;;;;3.60;2.20;;;;;;;13.80;75.62;102633.59;5054203;28;20064;-71
2023/09/07 06:46:40;;;;;;;2.90;2.20;;;;;;;13.67;76.65;102647.25;5052273;28;20045;-71
2023/09/07 06:49:06;;;;;;;4.07;2.00;;;;;;;13.48;77.08;102639.13;5054148;28;20029;-69
2023/09/07 06:51:32;;;;;;;5.97;2.40;;;;;;;13.35;77.57;102642.06;5048062;28;20083;-69
2023/09/07 06:53:58;;;;;;;5.67;2.00;;;;;;;13.02;79.59;102608.38;5054195;28;20469;-69
2023/09/07 06:56:24;;;;;;;5.23;1.93;;;;;;;13.03;79.42;102629.66;5053876;28;20024;-66
2023/09/07 06:58:49;;;;;;;4.20;2.00;;;;;;;12.90;80.16;102588.03;5053740;28;20116;-69
2023/09/07 07:01:15;;;;;;;3.77;2.27;;;;;;;13.17;80.68;102636.50;5054121;28;20457;-68
2023/09/07 07:03:41;;;;;;;4.20;2.20;;;;;;;13.25;79.52;102641.16;5057821;28;20457;-67
2023/09/07 07:06:07;;;;;;;9.30;2.20;;;;;;;13.28;78.85;102652.44;5058213;28;20111;-68
2023/09/07 07:08:32;;;;;;;4.63;2.07;;;;;;;13.13;79.55;102629.69;5059619;28;20492;-67
2023/09/07 07:10:58;;;;;;;5.43;2.33;;;;;;;13.12;79.42;102641.38;5057344;28;20111;-68
2023/09/07 07:13:24;;;;;;;4.83;2.10;;;;;;;13.24;78.94;102658.19;5056539;28;20062;-66
2023/09/07 07:15:49;;;;;;;4.10;1.80;;;;;;;13.26;77.52;102665.09;5055396;28;20061;-68
2023/09/07 07:18:14;;;;;;;4.67;2.00;;;;;;;13.17;77.84;102651.66;5053820;28;20064;-69
2023/09/07 07:20:46;;;;;;;3.87;1.67;;;;;;;13.27;77.87;102663.28;5050060;28;20036;-65
2023/09/07 07:23:12;;;;;;;3.93;1.50;;;;;;;13.14;76.43;102636.72;5053948;28;20526;-66
2023/09/07 07:25:38;;;;;;;3.93;1.97;;;;;;;13.36;77.10;102664.31;5052285;28;20357;-65
2023/09/07 07:28:07;;;;;;;6.47;2.10;;;;;;;13.29;77.70;102651.44;5053381;28;20025;-68
2023/09/07 07:30:34;;;;;;;3.30;2.03;;;;;;;13.37;77.07;102652.63;5053527;28;20135;-65
2023/09/07 07:32:59;;;;;;;3.03;2.00;;;;;;;13.26;76.70;102632.16;5053925;28;20123;-64
2023/09/07 07:35:25;;;;;;;5.77;2.00;;;;;;;13.21;76.85;102611.16;5053504;28;20119;-68
2023/09/07 07:37:51;;;;;;;4.40;1.67;;;;;;;13.58;76.73;102667.63;5053555;28;20471;-66
2023/09/07 07:40:20;;;;;;;3.60;2.07;;;;;;;13.53;76.36;102658.31;5051983;28;20033;-67
2023/09/07 07:42:46;;;;;;;3.93;1.70;;;;;;;13.65;76.67;102665.28;5052800;28;20040;-66
2023/09/07 07:45:12;;;;;;;3.13;1.57;;;;;;;13.71;76.93;102662.03;5053126;28;20565;-67
2023/09/07 07:47:38;;;;;;;4.23;1.90;;;;;;;13.64;76.40;102612.72;5053105;28;20071;-66
2023/09/07 07:50:04;;;;;;;5.97;2.20;;;;;;;13.93;76.54;102628.84;5053011;28;20530;-66
2023/09/07 07:52:30;;;;;;;4.93;2.00;;;;;;;14.05;75.79;102610.78;5053025;28;20029;-66
2023/09/07 07:54:55;;;;;;;5.50;1.97;;;;;;;14.40;73.69;102615.56;5052779;28;20136;-67
2023/09/07 07:57:21;;;;;;;6.80;2.07;;;;;;;14.50;73.39;102622.66;5053022;28;20482;-69
2023/09/07 07:59:46;;;;;;;6.00;2.00;;;;;;;14.49;73.15;102647.78;5052870;28;20047;-71
2023/09/07 08:02:12;;;;;;;3.67;1.60;;;;;;;14.29;74.16;102646.06;5052946;28;20485;-71
2023/09/07 08:04:38;;;;;;;3.20;1.60;;;;;;;14.25;73.25;102660.72;5053075;28;20086;-71
2023/09/07 08:07:08;;;;;;;5.40;1.30;;;;;;;14.20;73.57;102647.75;5052819;28;20111;-70
2023/09/07 08:09:34;;;;;;;5.23;1.40;;;;;;;14.15;72.78;102639.25;5052576;28;20029;-69
2023/09/07 08:12:02;;;;;;;2.07;1.53;;;;;;;14.35;73.03;102661.56;5051132;28;20056;-68
2023/09/07 08:14:28;;;;;;;2.83;1.45;;;;;;;14.24;71.63;102626.88;5052885;28;20032;-68
2023/09/07 08:16:54;;;;;;;3.37;1.43;;;;;;;14.43;71.26;102656.38;5052761;28;20033;-67
2023/09/07 08:19:19;;;;;;;3.40;1.60;;;;;;;14.43;70.54;102640.28;5052321;28;20385;-71
2023/09/07 08:21:46;;;;;;;4.33;2.13;;;;;;;14.48;70.45;102645.25;5052194;28;20024;-70
2023/09/07 08:24:11;;;;;;;4.03;1.60;;;;;;;14.44;69.32;102628.56;5052362;28;20086;-69
2023/09/07 08:26:40;;;;;;;3.63;1.43;;;;;;;14.50;68.41;102625.34;5051181;28;20091;-70
2023/09/07 08:29:08;;;;;;;1.48;1.23;;;;;;;14.59;68.44;102620.09;5053661;28;20085;-72
2023/09/07 08:31:35;;;;;;;2.58;1.63;;;;;;;14.78;67.68;102641.53;5055623;28;20048;-70
2023/09/07 08:34:04;;;;;;;3.03;1.53;;;;;;;14.74;67.55;102610.59;5052512;28;20106;-70
2023/09/07 08:36:33;;;;;;;2.23;1.17;;;;;;;14.96;67.52;102645.13;5052281;28;20068;-70
2023/09/07 08:39:07;;;;;;;2.97;1.30;;;;;;;14.91;66.72;102620.59;5052174;28;20036;-70
2023/09/07 08:41:47;;;;;;;4.40;2.23;;;;;;;14.91;64.12;102631.31;5052284;28;20089;-72
2023/09/07 08:44:19;;;;;;;1.30;1.20;;;;;;;14.82;63.96;102606.22;5052181;28;20033;-67
2023/09/07 08:46:44;;;;;;;2.63;1.43;;;;;;;14.85;63.67;102613.13;5050846;28;20029;-67
2023/09/07 08:49:11;;;;;;;1.70;1.23;;;;;;;14.83;62.91;102615.94;5051896;28;20039;-65
2023/09/07 08:51:37;;;;;;;1.47;1.37;;;;;;;14.94;62.42;102614.91;5052235;28;20032;-66
2023/09/07 08:54:04;;;;;;;3.77;2.10;;;;;;;15.26;62.53;102641.34;5052288;28;20503;-69
2023/09/07 08:56:30;;;;;;;1.87;1.30;;;;;;;15.45;61.49;102645.81;5052136;28;20415;-65
2023/09/07 08:58:56;;;;;;;1.87;1.73;;;;;;;15.41;60.69;102617.56;5052227;28;20078;-70
2023/09/07 09:01:21;;;;;;;1.57;1.13;;;;;;;15.41;60.13;102612.19;5051812;28;20040;-66
2023/09/07 09:03:49;;;;;;;3.73;1.57;;;;;;;15.39;60.40;102611.50;5050674;28;20032;-68
2023/09/07 09:06:18;;;;;;;5.57;1.20;;;;;;;15.56;60.19;102636.69;5051549;28;20068;-66
2023/09/07 09:08:54;;;;;;;1.70;1.17;;;;;;;15.60;59.40;102636.28;5051687;28;20033;-67
2023/09/07 09:11:21;;;;;;;4.57;2.10;;;;;;;15.65;58.78;102625.94;5051587;28;20032;-68
2023/09/07 09:13:48;;;;;;;5.70;3.97;;;;;;;15.82;58.45;102629.63;5051746;28;20418;-67
2023/09/07 09:16:15;;;;;;;3.33;1.60;;;;;;;16.00;58.03;102624.28;5051612;28;20033;-68
2023/09/07 09:18:52;;;;;;;1.63;1.20;;;;;;;16.20;56.29;102620.47;5052196;28;20032;-67
2023/09/07 09:21:20;;;;;;;5.00;1.90;;;;;;;16.32;57.07;102629.97;5051882;28;20108;-67
2023/09/07 09:23:49;;;;;;;3.42;1.10;;;;;;;16.31;57.02;102625.59;5051320;28;20021;-66
2023/09/07 09:26:15;;;;;;;3.30;1.57;;;;;;;16.33;56.94;102617.38;5051155;28;20051;-67
2023/09/07 09:28:40;;;;;;;7.80;2.10;;;;;;;16.51;56.65;102626.28;5049792;28;20464;-68
2023/09/07 09:31:12;;;;;;;3.27;1.30;;;;;;;16.65;55.72;102619.47;5049279;28;20048;-65
2023/09/07 09:33:39;;;;;;;2.33;1.10;;;;;;;16.48;55.32;102596.13;5051152;28;20036;-69
2023/09/07 09:36:06;;;;;;;3.10;1.10;;;;;;;16.58;55.94;102629.16;5051064;28;20060;-67
2023/09/07 09:38:32;;;;;;;3.37;1.83;;;;;;;16.46;56.34;102604.34;5048715;28;20028;-67
2023/09/07 09:40:58;;;;;;;2.90;1.30;;;;;;;16.62;56.66;102622.47;5051365;28;20031;-70
2023/09/07 09:43:25;;;;;;;1.70;1.37;;;;;;;16.60;56.70;102628.00;5051174;28;20025;-68
2023/09/07 09:45:52;;;;;;;2.80;1.73;;;;;;;16.63;57.13;102626.84;5051178;28;20136;-67
2023/09/07 09:48:20;;;;;;;2.47;1.40;;;;;;;16.68;55.42;102624.56;5051014;28;20052;-68
2023/09/07 09:50:50;;;;;;;1.85;1.20;;;;;;;16.75;56.35;102612.16;5051015;28;20516;-65
2023/09/07 09:53:20;;;;;;;1.87;1.43;;;;;;;16.85;55.83;102614.75;5050879;28;20024;-69
2023/09/07 09:55:52;;;;;;;2.50;1.47;;;;;;;16.99;55.27;102623.06;5050749;28;20115;-66
2023/09/07 09:58:18;;;;;;;1.47;1.10;;;;;;;16.95;55.31;102608.25;5050921;28;20488;-66
2023/09/07 10:00:45;;;;;;;1.47;1.00;;;;;;;17.06;54.95;102617.91;5051993;28;20035;-67
2023/09/07 10:03:17;;;;;;;3.17;1.30;;;;;;;17.03;54.66;102613.66;5050941;28;20384;-67
2023/09/07 10:05:45;;;;;;;2.00;1.20;;;;;;;17.01;54.61;102580.69;5047458;28;20044;-67
2023/09/07 10:08:15;;;;;;;2.75;1.63;;;;;;;17.28;54.78;102605.72;5054826;28;20059;-68
2023/09/07 10:10:46;;;;;;;1.93;1.30;;;;;;;17.30;54.28;102609.09;5052316;28;20040;-65
2023/09/07 10:13:16;;;;;;;1.73;1.10;;;;;;;17.19;54.36;102618.31;5055141;28;20033;-68
2023/09/07 10:15:42;;;;;;;3.73;1.33;;;;;;;17.23;55.02;102608.06;5052229;28;20020;-69
2023/09/07 10:18:11;;;;;;;2.13;1.38;;;;;;;17.30;54.73;102611.78;5054841;28;20029;-66
2023/09/07 10:20:54;;;;;;;2.80;1.50;;;;;;;17.11;54.78;102614.75;5054425;28;20029;-69
2023/09/07 10:23:19;;;;;;;4.03;1.57;;;;;;;16.63;54.50;102570.34;5054561;28;20111;-67
2023/09/07 10:25:50;;;;;;;4.40;1.47;;;;;;;16.85;55.36;102604.84;5054161;28;20504;-66
2023/09/07 10:28:23;;;;;;;3.47;1.70;;;;;;;16.76;55.64;102586.94;5054556;28;20033;-67
2023/09/07 10:31:18;;;;;;;1.73;1.00;;;;;;;16.87;55.54;102592.06;5054405;28;20032;-66
2023/09/07 10:33:45;;;;;;;6.47;1.37;;;;;;;16.86;56.31;102579.63;5051968;28;20045;-68
2023/09/07 10:36:25;;;;;;;2.57;1.43;;;;;;;17.13;55.83;102596.59;5053276;28;20108;-69
2023/09/07 10:38:55;;;;;;;2.27;1.70;;;;;;;17.20;54.93;102573.38;5030179;28;20024;-69
2023/09/07 10:41:21;;;;;;;1.48;1.10;;;;;;;17.33;55.44;102603.38;5052556;28;20099;-67
2023/09/07 10:43:51;;;;;;;1.53;1.03;;;;;;;17.18;54.85;102576.25;5053711;28;20029;-67
2023/09/07 10:46:23;;;;;;;2.85;1.58;;;;;;;17.25;55.50;102589.88;5053673;28;20353;-67
2023/09/07 10:48:53;;;;;;;1.90;1.67;;;;;;;17.33;55.42;102596.16;5054299;28;20482;-68
2023/09/07 10:51:19;;;;;;;2.17;1.70;;;;;;;17.47;57.13;102592.00;5054145;28;20029;-67
2023/09/07 10:53:45;;;;;;;1.57;1.07;;;;;;;17.40;59.86;102571.28;5053775;28;20357;-66
2023/09/07 10:56:11;;;;;;;3.37;1.60;;;;;;;17.57;58.27;102590.00;5054010;28;20032;-66
2023/09/07 10:58:42;;;;;;;2.53;1.45;;;;;;;17.61;57.91;102580.56;5052605;28;20021;-66
2023/09/07 11:01:08;;;;;;;1.98;1.27;;;;;;;17.53;55.65;102567.09;5053702;28;20036;-67
2023/09/07 11:03:36;;;;;;;4.18;1.63;;;;;;;17.45;55.67;102593.16;5053459;28;20127;-66
2023/09/07 11:06:11;;;;;;;3.42;1.70;;;;;;;17.21;56.48;102593.91;5049872;28;20029;-67
2023/09/07 11:08:36;;;;;;;1.70;1.40;;;;;;;16.99;57.39;102595.31;5053528;28;20033;-67
2023/09/07 11:11:02;;;;;;;3.00;1.08;;;;;;;16.75;60.77;102557.50;5053930;28;20039;-67
2023/09/07 11:13:28;;;;;;;7.65;2.10;;;;;;;16.76;63.70;102581.56;5053987;28;20299;-67
2023/09/07 11:15:56;;;;;;;6.67;1.93;;;;;;;16.77;62.57;102585.97;5053805;28;20039;-66
2023/09/07 11:18:22;;;;;;;5.03;1.50;;;;;;;16.72;62.45;102577.50;5051544;28;20033;-69
2023/09/07 11:20:50;;;;;;;1.73;1.17;;;;;;;16.88;59.16;102596.44;5052679;28;20460;-66
2023/09/07 11:23:17;;;;;;;5.47;1.80;;;;;;;17.00;56.98;102592.47;5054426;28;20036;-67